sensor_id;sensor_type;location;lat;lon;timestamp;pressure;altitude;pressure_sealevel;temperature
19061;BMP280;9663;48.996;8.334;2023-06-04T00:01:54;100223.00;;;22.73
19061;BMP280;9663;48.996;8.334;2023-06-04T00:04:19;100225.00;;;22.68
19061;BMP280;9663;48.996;8.334;2023-06-04T00:06:45;100227.75;;;22.65
19061;BMP280;9663;48.996;8.334;2023-06-04T00:09:11;100227.16;;;22.60
19061;BMP280;9663;48.996;8.334;2023-06-04T00:11:36;100235.06;;;22.57
19061;BMP280;9663;48.996;8.334;2023-06-04T00:14:03;100218.97;;;22.52
19061;BMP280;9663;48.996;8.334;2023-06-04T00:16:28;100230.38;;;22.48
19061;BMP280;9663;48.996;8.334;2023-06-04T00:18:54;100225.53;;;22.42
19061;BMP280;9663;48.996;8.334;2023-06-04T00:21:20;100229.94;;;22.40
19061;BMP280;9663;48.996;8.334;2023-06-04T00:23:45;100224.13;;;22.36
19061;BMP280;9663;48.996;8.334;2023-06-04T00:26:11;100226.03;;;22.33
19061;BMP280;9663;48.996;8.334;2023-06-04T00:28:36;100225.34;;;22.30
19061;BMP280;9663;48.996;8.334;2023-06-04T00:31:05;100226.41;;;22.26
19061;BMP280;9663;48.996;8.334;2023-06-04T00:33:31;100222.31;;;22.22
19061;BMP280;9663;48.996;8.334;2023-06-04T00:35:57;100221.66;;;22.18
19061;BMP280;9663;48.996;8.334;2023-06-04T00:38:23;100226.03;;;22.16
19061;BMP280;9663;48.996;8.334;2023-06-04T00:40:49;100226.19;;;22.13
19061;BMP280;9663;48.996;8.334;2023-06-04T00:43:15;100227.25;;;22.09
19061;BMP280;9663;48.996;8.334;2023-06-04T00:45:40;100227.41;;;22.06
19061;BMP280;9663;48.996;8.334;2023-06-04T00:48:08;100225.81;;;22.04
19061;BMP280;9663;48.996;8.334;2023-06-04T00:50:34;100233.63;;;22.02
19061;BMP280;9663;48.996;8.334;2023-06-04T00:53:01;100233.78;;;21.99
19061;BMP280;9663;48.996;8.334;2023-06-04T00:55:28;100243.38;;;21.97
19061;BMP280;9663;48.996;8.334;2023-06-04T00:57:53;100241.78;;;21.95
19061;BMP280;9663;48.996;8.334;2023-06-04T01:00:19;100238.50;;;21.91
19061;BMP280;9663;48.996;8.334;2023-06-04T01:02:49;100242.84;;;21.91
19061;BMP280;9663;48.996;8.334;2023-06-04T01:05:37;100253.22;;;21.89
19061;BMP280;9663;48.996;8.334;2023-06-04T01:08:05;100251.72;;;21.86
19061;BMP280;9663;48.996;8.334;2023-06-04T01:10:35;100247.47;;;21.85
19061;BMP280;9663;48.996;8.334;2023-06-04T01:13:01;100245.81;;;21.84
19061;BMP280;9663;48.996;8.334;2023-06-04T01:15:26;100253.72;;;21.81
19061;BMP280;9663;48.996;8.334;2023-06-04T01:17:59;100252.16;;;21.77
19061;BMP280;9663;48.996;8.334;2023-06-04T01:20:44;100252.56;;;21.69
19061;BMP280;9663;48.996;8.334;2023-06-04T01:25:42;100259.69;;;21.64
19061;BMP280;9663;48.996;8.334;2023-06-04T01:28:11;100249.50;;;21.61
19061;BMP280;9663;48.996;8.334;2023-06-04T01:30:43;100258.25;;;21.59
19061;BMP280;9663;48.996;8.334;2023-06-04T01:33:17;100257.53;;;21.55
19061;BMP280;9663;48.996;8.334;2023-06-04T01:35:43;100258.53;;;21.53
19061;BMP280;9663;48.996;8.334;2023-06-04T01:38:09;100255.22;;;21.51
19061;BMP280;9663;48.996;8.334;2023-06-04T01:40:35;100254.34;;;21.50
19061;BMP280;9663;48.996;8.334;2023-06-04T01:43:02;100252.75;;;21.48
19061;BMP280;9663;48.996;8.334;2023-06-04T01:45:28;100253.66;;;21.47
19061;BMP280;9663;48.996;8.334;2023-06-04T01:47:55;100256.25;;;21.47
19061;BMP280;9663;48.996;8.334;2023-06-04T01:50:21;100259.03;;;21.42
19061;BMP280;9663;48.996;8.334;2023-06-04T01:52:47;100253.94;;;21.41
19061;BMP280;9663;48.996;8.334;2023-06-04T01:55:15;100251.50;;;21.38
19061;BMP280;9663;48.996;8.334;2023-06-04T01:57:43;100255.91;;;21.36
19061;BMP280;9663;48.996;8.334;2023-06-04T02:00:13;100257.69;;;21.34
19061;BMP280;9663;48.996;8.334;2023-06-04T02:02:42;100259.59;;;21.31
19061;BMP280;9663;48.996;8.334;2023-06-04T02:05:09;100258.09;;;21.27
19061;BMP280;9663;48.996;8.334;2023-06-04T02:07:40;100259.91;;;21.25
19061;BMP280;9663;48.996;8.334;2023-06-04T02:10:08;100264.38;;;21.21
19061;BMP280;9663;48.996;8.334;2023-06-04T02:12:38;100259.34;;;21.18
19061;BMP280;9663;48.996;8.334;2023-06-04T02:15:05;100256.91;;;21.15
19061;BMP280;9663;48.996;8.334;2023-06-04T02:17:31;100263.06;;;21.13
19061;BMP280;9663;48.996;8.334;2023-06-04T02:20:04;100263.97;;;21.12
19061;BMP280;9663;48.996;8.334;2023-06-04T02:22:31;100266.66;;;21.09
19061;BMP280;9663;48.996;8.334;2023-06-04T02:24:56;100261.56;;;21.07
19061;BMP280;9663;48.996;8.334;2023-06-04T02:27:22;100265.97;;;21.05
19061;BMP280;9663;48.996;8.334;2023-06-04T02:29:48;100267.88;;;21.02
19061;BMP280;9663;48.996;8.334;2023-06-04T02:32:13;100270.50;;;21.00
19061;BMP280;9663;48.996;8.334;2023-06-04T02:34:39;100267.19;;;20.99
19061;BMP280;9663;48.996;8.334;2023-06-04T02:37:05;100271.63;;;20.95
19061;BMP280;9663;48.996;8.334;2023-06-04T02:39:31;100268.28;;;20.93
19061;BMP280;9663;48.996;8.334;2023-06-04T02:41:56;100269.34;;;20.89
19061;BMP280;9663;48.996;8.334;2023-06-04T02:44:22;100272.09;;;20.85
19061;BMP280;9663;48.996;8.334;2023-06-04T02:46:48;100276.44;;;20.84
19061;BMP280;9663;48.996;8.334;2023-06-04T02:49:13;100271.47;;;20.80
19061;BMP280;9663;48.996;8.334;2023-06-04T02:51:40;100271.53;;;20.78
19061;BMP280;9663;48.996;8.334;2023-06-04T02:54:06;100276.75;;;20.77
19061;BMP280;9663;48.996;8.334;2023-06-04T02:56:33;100276.88;;;20.75
19061;BMP280;9663;48.996;8.334;2023-06-04T02:58:59;100281.28;;;20.72
19061;BMP280;9663;48.996;8.334;2023-06-04T03:01:26;100271.16;;;20.69
19061;BMP280;9663;48.996;8.334;2023-06-04T03:03:53;100278.88;;;20.69
19061;BMP280;9663;48.996;8.334;2023-06-04T03:06:21;100283.38;;;20.64
19061;BMP280;9663;48.996;8.334;2023-06-04T03:08:48;100282.47;;;20.65
19061;BMP280;9663;48.996;8.334;2023-06-04T03:11:16;100288.59;;;20.62
19061;BMP280;9663;48.996;8.334;2023-06-04T03:13:41;100286.97;;;20.60
19061;BMP280;9663;48.996;8.334;2023-06-04T03:16:07;100290.53;;;20.57
19061;BMP280;9663;48.996;8.334;2023-06-04T03:18:36;100293.16;;;20.56
19061;BMP280;9663;48.996;8.334;2023-06-04T03:21:06;100292.41;;;20.54
19061;BMP280;9663;48.996;8.334;2023-06-04T03:23:34;100289.97;;;20.51
19061;BMP280;9663;48.996;8.334;2023-06-04T03:26:02;100289.19;;;20.49
19061;BMP280;9663;48.996;8.334;2023-06-04T03:28:29;100307.34;;;20.46
19061;BMP280;9663;48.996;8.334;2023-06-04T03:30:55;100292.78;;;20.45
19061;BMP280;9663;48.996;8.334;2023-06-04T03:33:20;100292.84;;;20.44
19061;BMP280;9663;48.996;8.334;2023-06-04T03:35:46;100290.34;;;20.42
19061;BMP280;9663;48.996;8.334;2023-06-04T03:38:14;100300.81;;;20.39
19061;BMP280;9663;48.996;8.334;2023-06-04T03:40:40;100299.19;;;20.37
19061;BMP280;9663;48.996;8.334;2023-06-04T03:43:06;100295.78;;;20.36
19061;BMP280;9663;48.996;8.334;2023-06-04T03:45:31;100297.50;;;20.36
19061;BMP280;9663;48.996;8.334;2023-06-04T03:47:57;100292.44;;;20.34
19061;BMP280;9663;48.996;8.334;2023-06-04T03:50:23;100300.06;;;20.36
19061;BMP280;9663;48.996;8.334;2023-06-04T03:52:49;100299.25;;;20.35
19061;BMP280;9663;48.996;8.334;2023-06-04T03:55:15;100300.97;;;20.35
19061;BMP280;9663;48.996;8.334;2023-06-04T03:57:40;100308.66;;;20.36
19061;BMP280;9663;48.996;8.334;2023-06-04T04:00:09;100298.28;;;20.38
19061;BMP280;9663;48.996;8.334;2023-06-04T04:02:40;100299.06;;;20.40
19061;BMP280;9663;48.996;8.334;2023-06-04T04:05:07;100300.63;;;20.42
19061;BMP280;9663;48.996;8.334;2023-06-04T04:07:32;100308.38;;;20.42
19061;BMP280;9663;48.996;8.334;2023-06-04T04:09:58;100314.31;;;20.44
19061;BMP280;9663;48.996;8.334;2023-06-04T04:12:24;100317.72;;;20.45
19061;BMP280;9663;48.996;8.334;2023-06-04T04:14:49;100315.09;;;20.46
19061;BMP280;9663;48.996;8.334;2023-06-04T04:17:15;100314.09;;;20.49
19061;BMP280;9663;48.996;8.334;2023-06-04T04:19:41;100315.72;;;20.51
19061;BMP280;9663;48.996;8.334;2023-06-04T04:22:07;100312.16;;;20.54
19061;BMP280;9663;48.996;8.334;2023-06-04T04:24:34;100323.31;;;20.54
19061;BMP280;9663;48.996;8.334;2023-06-04T04:27:04;100316.53;;;20.52
19061;BMP280;9663;48.996;8.334;2023-06-04T04:29:30;100319.19;;;20.50
19061;BMP280;9663;48.996;8.334;2023-06-04T04:32:01;100324.34;;;20.50
19061;BMP280;9663;48.996;8.334;2023-06-04T04:34:36;100326.09;;;20.50
19061;BMP280;9663;48.996;8.334;2023-06-04T04:37:05;100325.25;;;20.49
19061;BMP280;9663;48.996;8.334;2023-06-04T04:39:35;100334.53;;;20.53
19061;BMP280;9663;48.996;8.334;2023-06-04T04:42:02;100331.88;;;20.55
19061;BMP280;9663;48.996;8.334;2023-06-04T04:44:28;100328.31;;;20.57
19061;BMP280;9663;48.996;8.334;2023-06-04T04:46:54;100328.19;;;20.60
19061;BMP280;9663;48.996;8.334;2023-06-04T04:49:20;100334.91;;;20.64
19061;BMP280;9663;48.996;8.334;2023-06-04T04:51:46;100334.78;;;20.67
19061;BMP280;9663;48.996;8.334;2023-06-04T04:54:12;100336.28;;;20.72
19061;BMP280;9663;48.996;8.334;2023-06-04T04:56:38;100335.16;;;20.78
19061;BMP280;9663;48.996;8.334;2023-06-04T04:59:03;100329.75;;;20.84
19061;BMP280;9663;48.996;8.334;2023-06-04T05:01:32;100339.75;;;20.90
19061;BMP280;9663;48.996;8.334;2023-06-04T05:03:58;100326.75;;;20.93
19061;BMP280;9663;48.996;8.334;2023-06-04T05:06:23;100329.94;;;20.98
19061;BMP280;9663;48.996;8.334;2023-06-04T05:08:49;100324.47;;;21.05
19061;BMP280;9663;48.996;8.334;2023-06-04T05:11:15;100324.22;;;21.09
19061;BMP280;9663;48.996;8.334;2023-06-04T05:13:41;100328.50;;;21.10
19061;BMP280;9663;48.996;8.334;2023-06-04T05:16:09;100338.75;;;21.12
19061;BMP280;9663;48.996;8.334;2023-06-04T05:18:41;100329.19;;;21.14
19061;BMP280;9663;48.996;8.334;2023-06-04T05:21:10;100332.59;;;21.14
19061;BMP280;9663;48.996;8.334;2023-06-04T05:23:38;100341.13;;;21.16
19061;BMP280;9663;48.996;8.334;2023-06-04T05:26:04;100342.63;;;21.20
19061;BMP280;9663;48.996;8.334;2023-06-04T05:28:31;100347.53;;;21.26
19061;BMP280;9663;48.996;8.334;2023-06-04T05:31:00;100348.22;;;21.30
19061;BMP280;9663;48.996;8.334;2023-06-04T05:33:27;100346.19;;;21.36
19061;BMP280;9663;48.996;8.334;2023-06-04T05:35:53;100339.88;;;21.43
19061;BMP280;9663;48.996;8.334;2023-06-04T05:38:24;100342.88;;;21.52
19061;BMP280;9663;48.996;8.334;2023-06-04T05:40:54;100339.16;;;21.58
19061;BMP280;9663;48.996;8.334;2023-06-04T05:43:21;100351.91;;;21.61
19061;BMP280;9663;48.996;8.334;2023-06-04T05:45:48;100345.69;;;21.65
19061;BMP280;9663;48.996;8.334;2023-06-04T05:48:14;100349.13;;;21.65
19061;BMP280;9663;48.996;8.334;2023-06-04T05:50:40;100350.84;;;21.65
19061;BMP280;9663;48.996;8.334;2023-06-04T05:53:05;100342.22;;;21.66
19061;BMP280;9663;48.996;8.334;2023-06-04T05:55:34;100347.06;;;21.72
19061;BMP280;9663;48.996;8.334;2023-06-04T05:58:00;100347.63;;;21.78
19061;BMP280;9663;48.996;8.334;2023-06-04T06:00:26;100355.00;;;21.86
19061;BMP280;9663;48.996;8.334;2023-06-04T06:02:55;100358.00;;;21.95
19061;BMP280;9663;48.996;8.334;2023-06-04T06:05:21;100354.88;;;22.05
19061;BMP280;9663;48.996;8.334;2023-06-04T06:07:47;100356.09;;;22.15
19061;BMP280;9663;48.996;8.334;2023-06-04T06:10:14;100359.25;;;22.22
19061;BMP280;9663;48.996;8.334;2023-06-04T06:12:41;100369.44;;;22.25
19061;BMP280;9663;48.996;8.334;2023-06-04T06:15:07;100364.94;;;22.28
19061;BMP280;9663;48.996;8.334;2023-06-04T06:17:33;100355.28;;;22.31
19061;BMP280;9663;48.996;8.334;2023-06-04T06:19:59;100361.00;;;22.38
19061;BMP280;9663;48.996;8.334;2023-06-04T06:22:25;100365.69;;;22.47
19061;BMP280;9663;48.996;8.334;2023-06-04T06:24:51;100363.47;;;22.56
19061;BMP280;9663;48.996;8.334;2023-06-04T06:27:17;100369.03;;;22.66
19061;BMP280;9663;48.996;8.334;2023-06-04T06:29:43;100366.16;;;22.70
19061;BMP280;9663;48.996;8.334;2023-06-04T06:32:10;100365.03;;;22.75
19061;BMP280;9663;48.996;8.334;2023-06-04T06:34:39;100374.97;;;22.83
19061;BMP280;9663;48.996;8.334;2023-06-04T06:37:06;100366.09;;;22.88
19061;BMP280;9663;48.996;8.334;2023-06-04T06:39:32;100361.34;;;22.96
19061;BMP280;9663;48.996;8.334;2023-06-04T06:41:58;100359.19;;;23.04
19061;BMP280;9663;48.996;8.334;2023-06-04T06:44:23;100364.88;;;23.11
19061;BMP280;9663;48.996;8.334;2023-06-04T06:46:49;100360.22;;;23.17
19061;BMP280;9663;48.996;8.334;2023-06-04T06:49:15;100367.59;;;23.24
19061;BMP280;9663;48.996;8.334;2023-06-04T06:51:41;100369.75;;;23.32
19061;BMP280;9663;48.996;8.334;2023-06-04T06:54:10;100364.84;;;23.43
19061;BMP280;9663;48.996;8.334;2023-06-04T06:56:36;100366.00;;;23.53
19061;BMP280;9663;48.996;8.334;2023-06-04T06:59:01;100366.09;;;23.66
19061;BMP280;9663;48.996;8.334;2023-06-04T07:01:27;100365.25;;;23.81
19061;BMP280;9663;48.996;8.334;2023-06-04T07:03:53;100365.25;;;23.97
19061;BMP280;9663;48.996;8.334;2023-06-04T07:06:19;100375.72;;;24.09
19061;BMP280;9663;48.996;8.334;2023-06-04T07:08:44;100370.03;;;24.18
19061;BMP280;9663;48.996;8.334;2023-06-04T07:11:10;100366.81;;;24.28
19061;BMP280;9663;48.996;8.334;2023-06-04T07:13:39;100373.72;;;24.43
19061;BMP280;9663;48.996;8.334;2023-06-04T07:16:05;100370.41;;;24.55
19061;BMP280;9663;48.996;8.334;2023-06-04T07:18:30;100378.66;;;24.61
19061;BMP280;9663;48.996;8.334;2023-06-04T07:20:56;100376.63;;;24.66
19061;BMP280;9663;48.996;8.334;2023-06-04T07:23:22;100368.59;;;24.71
19061;BMP280;9663;48.996;8.334;2023-06-04T07:25:48;100369.22;;;24.74
19061;BMP280;9663;48.996;8.334;2023-06-04T07:28:13;100377.56;;;24.79
19061;BMP280;9663;48.996;8.334;2023-06-04T07:30:39;100372.59;;;24.90
19061;BMP280;9663;48.996;8.334;2023-06-04T07:33:05;100375.84;;;25.07
19061;BMP280;9663;48.996;8.334;2023-06-04T07:35:31;100381.84;;;25.22
19061;BMP280;9663;48.996;8.334;2023-06-04T07:37:57;100382.88;;;25.33
19061;BMP280;9663;48.996;8.334;2023-06-04T07:40:23;100375.25;;;25.44
19061;BMP280;9663;48.996;8.334;2023-06-04T07:42:48;100371.69;;;25.59
19061;BMP280;9663;48.996;8.334;2023-06-04T07:45:15;100375.75;;;25.77
19061;BMP280;9663;48.996;8.334;2023-06-04T07:47:42;100378.00;;;25.95
19061;BMP280;9663;48.996;8.334;2023-06-04T07:50:08;100371.91;;;26.08
19061;BMP280;9663;48.996;8.334;2023-06-04T07:52:34;100365.88;;;26.20
19061;BMP280;9663;48.996;8.334;2023-06-04T07:55:00;100367.94;;;26.29
19061;BMP280;9663;48.996;8.334;2023-06-04T07:57:27;100363.66;;;26.40
19061;BMP280;9663;48.996;8.334;2023-06-04T07:59:52;100366.59;;;26.48
19061;BMP280;9663;48.996;8.334;2023-06-04T08:02:18;100365.03;;;26.58
19061;BMP280;9663;48.996;8.334;2023-06-04T08:04:45;100360.34;;;26.75
19061;BMP280;9663;48.996;8.334;2023-06-04T08:07:12;100357.66;;;26.89
19061;BMP280;9663;48.996;8.334;2023-06-04T08:09:38;100356.50;;;27.06
19061;BMP280;9663;48.996;8.334;2023-06-04T08:12:04;100363.25;;;27.20
19061;BMP280;9663;48.996;8.334;2023-06-04T08:14:30;100349.88;;;27.37
19061;BMP280;9663;48.996;8.334;2023-06-04T08:16:57;100354.84;;;27.52
19061;BMP280;9663;48.996;8.334;2023-06-04T08:19:23;100353.84;;;27.66
19061;BMP280;9663;48.996;8.334;2023-06-04T08:21:50;100354.16;;;27.74
19061;BMP280;9663;48.996;8.334;2023-06-04T08:24:16;100359.03;;;27.78
19061;BMP280;9663;48.996;8.334;2023-06-04T08:26:42;100372.06;;;27.78
19061;BMP280;9663;48.996;8.334;2023-06-04T08:29:08;100361.03;;;27.75
19061;BMP280;9663;48.996;8.334;2023-06-04T08:31:34;100356.75;;;27.74
19061;BMP280;9663;48.996;8.334;2023-06-04T08:33:59;100359.34;;;27.74
19061;BMP280;9663;48.996;8.334;2023-06-04T08:36:27;100355.34;;;27.81
19061;BMP280;9663;48.996;8.334;2023-06-04T08:38:53;100360.03;;;27.88
19061;BMP280;9663;48.996;8.334;2023-06-04T08:43:58;100366.94;;;28.00
19061;BMP280;9663;48.996;8.334;2023-06-04T08:46:28;100367.75;;;28.00
19061;BMP280;9663;48.996;8.334;2023-06-04T08:48:59;100360.66;;;28.02
19061;BMP280;9663;48.996;8.334;2023-06-04T08:51:27;100359.44;;;28.08
19061;BMP280;9663;48.996;8.334;2023-06-04T08:53:53;100374.75;;;28.23
19061;BMP280;9663;48.996;8.334;2023-06-04T08:56:20;100373.63;;;28.38
19061;BMP280;9663;48.996;8.334;2023-06-04T08:58:48;100364.03;;;28.49
19061;BMP280;9663;48.996;8.334;2023-06-04T09:01:14;100364.19;;;28.59
19061;BMP280;9663;48.996;8.334;2023-06-04T09:03:41;100369.81;;;28.65
19061;BMP280;9663;48.996;8.334;2023-06-04T09:06:07;100374.53;;;28.71
19061;BMP280;9663;48.996;8.334;2023-06-04T09:08:37;100373.03;;;28.80
19061;BMP280;9663;48.996;8.334;2023-06-04T09:11:08;100357.13;;;28.93
19061;BMP280;9663;48.996;8.334;2023-06-04T09:13:36;100371.72;;;29.07
19061;BMP280;9663;48.996;8.334;2023-06-04T09:16:03;100370.31;;;29.25
19061;BMP280;9663;48.996;8.334;2023-06-04T09:18:29;100360.69;;;29.36
19061;BMP280;9663;48.996;8.334;2023-06-04T09:21:07;100365.16;;;29.45
19061;BMP280;9663;48.996;8.334;2023-06-04T09:23:47;100369.91;;;29.51
19061;BMP280;9663;48.996;8.334;2023-06-04T09:26:13;100376.78;;;29.63
19061;BMP280;9663;48.996;8.334;2023-06-04T09:28:41;100368.91;;;29.73
19061;BMP280;9663;48.996;8.334;2023-06-04T09:31:16;100363.94;;;29.81
19061;BMP280;9663;48.996;8.334;2023-06-04T09:33:48;100367.34;;;29.93
19061;BMP280;9663;48.996;8.334;2023-06-04T09:36:15;100367.78;;;29.98
19061;BMP280;9663;48.996;8.334;2023-06-04T09:38:41;100365.50;;;30.04
19061;BMP280;9663;48.996;8.334;2023-06-04T09:41:16;100358.13;;;30.09
19061;BMP280;9663;48.996;8.334;2023-06-04T09:43:42;100359.13;;;30.17
19061;BMP280;9663;48.996;8.334;2023-06-04T09:46:16;100359.91;;;30.29
19061;BMP280;9663;48.996;8.334;2023-06-04T09:48:44;100356.88;;;30.44
19061;BMP280;9663;48.996;8.334;2023-06-04T09:51:13;100354.50;;;30.61
19061;BMP280;9663;48.996;8.334;2023-06-04T09:53:41;100353.06;;;30.78
19061;BMP280;9663;48.996;8.334;2023-06-04T09:56:07;100355.25;;;30.93
19061;BMP280;9663;48.996;8.334;2023-06-04T09:58:34;100359.41;;;31.05
19061;BMP280;9663;48.996;8.334;2023-06-04T10:01:04;100353.66;;;31.11
19061;BMP280;9663;48.996;8.334;2023-06-04T10:03:35;100347.88;;;31.17
19061;BMP280;9663;48.996;8.334;2023-06-04T10:06:05;100341.97;;;31.24
19061;BMP280;9663;48.996;8.334;2023-06-04T10:08:33;100349.88;;;31.34
19061;BMP280;9663;48.996;8.334;2023-06-04T10:11:01;100356.00;;;31.44
19061;BMP280;9663;48.996;8.334;2023-06-04T10:14:00;100357.06;;;31.41
19061;BMP280;9663;48.996;8.334;2023-06-04T10:16:28;100358.22;;;31.57
19061;BMP280;9663;48.996;8.334;2023-06-04T10:18:57;100353.03;;;32.14
19061;BMP280;9663;48.996;8.334;2023-06-04T10:21:23;100344.44;;;31.84
19061;BMP280;9663;48.996;8.334;2023-06-04T10:23:50;100344.16;;;31.77
19061;BMP280;9663;48.996;8.334;2023-06-04T10:26:17;100343.22;;;31.78
19061;BMP280;9663;48.996;8.334;2023-06-04T10:28:43;100345.00;;;31.78
19061;BMP280;9663;48.996;8.334;2023-06-04T10:31:12;100343.88;;;31.80
19061;BMP280;9663;48.996;8.334;2023-06-04T10:33:39;100337.38;;;31.84
19061;BMP280;9663;48.996;8.334;2023-06-04T10:36:20;100337.69;;;31.90
19061;BMP280;9663;48.996;8.334;2023-06-04T10:38:54;100342.00;;;32.01
19061;BMP280;9663;48.996;8.334;2023-06-04T10:41:22;100335.50;;;32.14
19061;BMP280;9663;48.996;8.334;2023-06-04T10:44:00;100343.06;;;32.27
19061;BMP280;9663;48.996;8.334;2023-06-04T10:46:37;100336.44;;;32.41
19061;BMP280;9663;48.996;8.334;2023-06-04T10:49:03;100334.59;;;32.61
19061;BMP280;9663;48.996;8.334;2023-06-04T10:51:33;100336.31;;;32.79
19061;BMP280;9663;48.996;8.334;2023-06-04T10:54:01;100334.78;;;32.86
19061;BMP280;9663;48.996;8.334;2023-06-04T10:56:30;100331.47;;;32.93
19061;BMP280;9663;48.996;8.334;2023-06-04T10:58:58;100339.16;;;33.04
19061;BMP280;9663;48.996;8.334;2023-06-04T11:01:30;100329.97;;;33.18
19061;BMP280;9663;48.996;8.334;2023-06-04T11:03:57;100319.25;;;33.28
19061;BMP280;9663;48.996;8.334;2023-06-04T11:06:23;100326.94;;;33.39
19061;BMP280;9663;48.996;8.334;2023-06-04T11:09:05;100326.13;;;33.56
19061;BMP280;9663;48.996;8.334;2023-06-04T11:11:31;100326.16;;;33.73
19061;BMP280;9663;48.996;8.334;2023-06-04T11:14:12;100321.50;;;33.85
19061;BMP280;9663;48.996;8.334;2023-06-04T11:16:39;100321.81;;;33.99
19061;BMP280;9663;48.996;8.334;2023-06-04T11:19:05;100324.03;;;34.11
19061;BMP280;9663;48.996;8.334;2023-06-04T11:21:33;100322.00;;;34.23
19061;BMP280;9663;48.996;8.334;2023-06-04T11:24:02;100323.44;;;34.60
19061;BMP280;9663;48.996;8.334;2023-06-04T11:26:36;100303.59;;;35.71
19061;BMP280;9663;48.996;8.334;2023-06-04T11:29:09;100302.88;;;37.10
19061;BMP280;9663;48.996;8.334;2023-06-04T11:31:45;100305.66;;;38.36
19061;BMP280;9663;48.996;8.334;2023-06-04T11:34:22;100294.03;;;39.37
19061;BMP280;9663;48.996;8.334;2023-06-04T11:36:48;100294.47;;;40.03
19061;BMP280;9663;48.996;8.334;2023-06-04T11:39:15;100296.41;;;40.63
19061;BMP280;9663;48.996;8.334;2023-06-04T11:41:41;100286.19;;;41.13
19061;BMP280;9663;48.996;8.334;2023-06-04T11:44:08;100278.22;;;41.72
19061;BMP280;9663;48.996;8.334;2023-06-04T11:46:43;100290.31;;;42.26
19061;BMP280;9663;48.996;8.334;2023-06-04T11:49:15;100291.25;;;42.64
19061;BMP280;9663;48.996;8.334;2023-06-04T11:51:52;100279.66;;;43.02
19061;BMP280;9663;48.996;8.334;2023-06-04T11:54:22;100280.94;;;43.37
19061;BMP280;9663;48.996;8.334;2023-06-04T11:56:51;100279.53;;;43.65
19061;BMP280;9663;48.996;8.334;2023-06-04T11:59:18;100278.34;;;43.85
19061;BMP280;9663;48.996;8.334;2023-06-04T12:01:45;100274.59;;;44.17
19061;BMP280;9663;48.996;8.334;2023-06-04T12:04:19;100280.25;;;44.51
19061;BMP280;9663;48.996;8.334;2023-06-04T12:07:00;100289.03;;;44.75
19061;BMP280;9663;48.996;8.334;2023-06-04T12:09:33;100283.19;;;44.96
19061;BMP280;9663;48.996;8.334;2023-06-04T12:12:03;100277.09;;;45.07
19061;BMP280;9663;48.996;8.334;2023-06-04T12:14:29;100269.41;;;45.28
19061;BMP280;9663;48.996;8.334;2023-06-04T12:17:06;100273.84;;;45.34
19061;BMP280;9663;48.996;8.334;2023-06-04T12:19:33;100261.53;;;45.45
19061;BMP280;9663;48.996;8.334;2023-06-04T12:22:04;100265.06;;;45.57
19061;BMP280;9663;48.996;8.334;2023-06-04T12:24:47;100263.63;;;45.43
19061;BMP280;9663;48.996;8.334;2023-06-04T12:27:13;100260.16;;;45.54
19061;BMP280;9663;48.996;8.334;2023-06-04T12:29:39;100258.81;;;45.74
19061;BMP280;9663;48.996;8.334;2023-06-04T12:32:08;100256.06;;;46.03
19061;BMP280;9663;48.996;8.334;2023-06-04T12:34:38;100252.69;;;46.42
19061;BMP280;9663;48.996;8.334;2023-06-04T12:37:04;100255.34;;;46.64
19061;BMP280;9663;48.996;8.334;2023-06-04T12:39:33;100259.25;;;46.73
19061;BMP280;9663;48.996;8.334;2023-06-04T12:41:58;100257.09;;;46.98
19061;BMP280;9663;48.996;8.334;2023-06-04T12:44:24;100257.97;;;47.15
19061;BMP280;9663;48.996;8.334;2023-06-04T12:46:50;100257.16;;;47.14
19061;BMP280;9663;48.996;8.334;2023-06-04T12:49:16;100252.44;;;47.05
19061;BMP280;9663;48.996;8.334;2023-06-04T12:51:42;100255.53;;;47.13
19061;BMP280;9663;48.996;8.334;2023-06-04T12:54:08;100250.59;;;47.22
19061;BMP280;9663;48.996;8.334;2023-06-04T12:56:33;100261.53;;;47.32
19061;BMP280;9663;48.996;8.334;2023-06-04T12:58:59;100245.59;;;47.41
19061;BMP280;9663;48.996;8.334;2023-06-04T13:01:25;100256.78;;;47.66
19061;BMP280;9663;48.996;8.334;2023-06-04T13:03:50;100245.56;;;47.85
19061;BMP280;9663;48.996;8.334;2023-06-04T13:06:16;100245.97;;;47.94
19061;BMP280;9663;48.996;8.334;2023-06-04T13:11:58;100249.91;;;48.24
19061;BMP280;9663;48.996;8.334;2023-06-04T13:14:23;100240.78;;;48.25
19061;BMP280;9663;48.996;8.334;2023-06-04T13:16:49;100245.88;;;48.05
19061;BMP280;9663;48.996;8.334;2023-06-04T13:19:16;100246.56;;;48.17
19061;BMP280;9663;48.996;8.334;2023-06-04T13:21:42;100240.19;;;48.02
19061;BMP280;9663;48.996;8.334;2023-06-04T13:24:10;100248.16;;;48.13
19061;BMP280;9663;48.996;8.334;2023-06-04T13:26:36;100244.72;;;48.01
19061;BMP280;9663;48.996;8.334;2023-06-04T13:29:01;100247.03;;;47.93
19061;BMP280;9663;48.996;8.334;2023-06-04T13:31:27;100241.16;;;47.80
19061;BMP280;9663;48.996;8.334;2023-06-04T13:33:53;100236.34;;;47.81
19061;BMP280;9663;48.996;8.334;2023-06-04T13:36:18;100248.56;;;47.89
19061;BMP280;9663;48.996;8.334;2023-06-04T13:38:44;100245.88;;;47.89
19061;BMP280;9663;48.996;8.334;2023-06-04T13:41:10;100235.22;;;47.61
19061;BMP280;9663;48.996;8.334;2023-06-04T13:43:35;100233.50;;;47.72
19061;BMP280;9663;48.996;8.334;2023-06-04T13:46:01;100239.22;;;47.59
19061;BMP280;9663;48.996;8.334;2023-06-04T13:48:28;100242.88;;;47.25
19061;BMP280;9663;48.996;8.334;2023-06-04T13:50:53;100241.47;;;46.67
19061;BMP280;9663;48.996;8.334;2023-06-04T13:53:19;100239.03;;;46.09
19061;BMP280;9663;48.996;8.334;2023-06-04T13:55:45;100245.91;;;45.42
19061;BMP280;9663;48.996;8.334;2023-06-04T13:58:11;100239.88;;;44.70
19061;BMP280;9663;48.996;8.334;2023-06-04T14:00:37;100243.69;;;44.03
19061;BMP280;9663;48.996;8.334;2023-06-04T14:03:03;100242.47;;;43.44
19061;BMP280;9663;48.996;8.334;2023-06-04T14:05:29;100229.00;;;42.95
19061;BMP280;9663;48.996;8.334;2023-06-04T14:07:55;100229.31;;;42.62
19061;BMP280;9663;48.996;8.334;2023-06-04T14:10:21;100226.09;;;42.34
19061;BMP280;9663;48.996;8.334;2023-06-04T14:12:47;100222.03;;;42.06
19061;BMP280;9663;48.996;8.334;2023-06-04T14:15:13;100231.31;;;41.84
19061;BMP280;9663;48.996;8.334;2023-06-04T14:17:39;100233.13;;;41.64
19061;BMP280;9663;48.996;8.334;2023-06-04T14:20:06;100230.03;;;41.42